Carp, Canada
Current Conditions -  °F | °C
As of 4:00 AM on Saturday 25 Oct 2014 (Local Time) from CYOW Reporting Station
Few Clouds Few Clouds  
Wind Chill: 36°   Ceiling: Unl
Heat Index: 41°   Visibility: 15mi
Dew Point: 34°   Wind: 7mph
Humidity: 76%   Direction: 280°W
Pressure: 29.79"   Gusts: NA
Location:  45.35°N, 76.03°W
Report Text: CYOW 250800Z 28006KT 15SM FEW100 05/01 A2979 RMK AC1 AC TR SLP091
Loading
Personal Weather Stations






























Interactive Weather Map
Tropical Storm Tracking
New forecast layout! Learn more

10-Day Weather Forecast

Advertisements
Track Severe Weather on mobile